Ans, Belgium

11:49 AM CET on December 20, 2014 (GMT +0100)
Maastricht-Aachen | Change Station
CLOSE
Current Station
Airport
Location: Maastricht,
Elevation: 374 ft
Nearby Weather Stations

Elev 374 ft 50.91 °N, 5.76 °E | Updated 24 minutes ago

Partly Cloudy
Partly Cloudy
43 °F
Feels Like 35 °F
N
15
Wind Variable Wind from WSW

Today
High -- | Low -- °F
--% Chance of Precip.
Yesterday
High -- | Low -- °F
Precip. -- in
8:36 AM 4:34 PM
Waning Crescent, 3% visible
Pressure 30.18 in
Visibility 6.2 miles
Clouds Few 3200 ft
Windchill 35 °F
Dew Point 37 °F
Humidity 81%
Rainfall 0.00 in
Snow Depth Not available.
UV 1 out of 12
Pollen Not available.
Air Quality Not available.
Flu Activity Not available.
METAR EHBK 201025Z AUTO 24013KT 210V270 9999 FEW032 06/03 Q1022 NOSIG

More Conditions Fewer Conditions

Pressure 30.18 in
Visibility 6.2 miles
Clouds Few 3200 ft
Windchill 35 °F
Dew Point 37 °F
Humidity 81%
Rainfall 0.00 in
Snow Depth Not available.
UV 1 out of 12
Pollen Not available.
Air Quality Not available.
Flu Activity Not available.
METAR EHBK 201025Z AUTO 24013KT 210V270 9999 FEW032 06/03 Q1022 NOSIG

More Conditions Fewer Conditions

10-Day Weather Forecast

Almanac

Astronomy

Dec. 20, 2014 Rise Set
Actual Time
Civil Twilight
Nautical Twilight
Astronomical Twilight
Moon
Length of Visible Light
Length of Day
Tomorrow will be .
, % of the Moon is Illuminated

Today's Extremes

Country Highs Country Lows

Community

WunderPhotos

Upload Photos

1,779,151 photos uploaded!

WunderBlogs® & News

Nearby

Air Quality

  Air Quality AQ Index Pollutant
Not available.

Snow Depth

Station Depth Elevation

Earthquake Activity

City Distance Mag. Time & Date
Minimum magnitude displayed is 2.5.

Coastal Water Temperatures

Place Temperature

Nearby Weather Stations